.
WxDataArchive / Data Records for 2009-08-05
2009-08-04 August 2009 2009-08-06

Data Records for Wednesday, 05 August 2009

Time	Temp	Chill	HIndex	Humid	Dewpt	 Wind 	HiWind	WindDir	Rain 	Barom 
-----	----	-----	------	-----	-----	------	------	-------	-----	----- 
00:00	69.4	69.4	69.4	85	64.7	1	3	270	0.00	29.928 
00:05	69.3	69.3	69.3	86	64.9	0	2	270	0.00	29.928 
00:10	69.1	69.1	69.1	86	64.7	0	1	270	0.00	29.928 
00:15	68.9	68.9	68.9	87	64.9	1	3	270	0.00	29.923 
00:20	68.8	68.8	68.8	87	64.8	0	2	270	0.00	29.923 
00:25	68.6	68.6	68.6	87	64.6	0	1	270	0.00	29.923 
00:30	68.6	68.6	68.6	88	64.9	0	2	270	0.00	29.926 
00:35	68.4	68.4	68.4	88	64.7	0	1	270	0.00	29.926 
00:40	68.3	68.3	68.3	88	64.6	0	1	270	0.00	29.926 
00:45	68.3	68.3	68.3	88	64.6	0	0	---	0.00	29.932 
00:50	68.1	68.1	68.1	89	64.7	0	0	---	0.00	29.932 
00:55	67.9	67.9	67.9	89	64.5	0	0	---	0.00	29.932 
01:00	67.9	67.9	67.9	89	64.5	0	0	---	0.00	29.937 
01:05	67.8	67.8	67.8	90	64.8	0	0	---	0.00	29.937 
01:10	67.6	67.6	67.6	90	64.6	0	0	---	0.00	29.937 
01:15	67.6	67.6	67.6	90	64.6	0	0	---	0.00	29.945 
01:20	67.4	67.4	67.4	90	64.4	0	0	---	0.00	29.945 
01:25	67.3	67.3	67.3	91	64.6	0	0	---	0.00	29.945 
01:30	67.1	67.1	67.1	91	64.4	0	0	---	0.00	29.944 
01:35	66.9	66.9	66.9	91	64.2	0	0	---	0.00	29.944 
01:40	66.9	66.9	66.9	91	64.2	0	0	---	0.00	29.944 
01:45	66.8	66.8	66.8	91	64.1	0	0	---	0.00	29.949 
01:50	66.8	66.8	66.8	92	64.4	0	0	---	0.00	29.949 
01:55	66.6	66.6	66.6	92	64.2	0	0	---	0.00	29.949 
02:00	66.4	66.4	66.4	92	64.0	0	0	---	0.00	29.951 
02:05	66.3	66.3	66.3	92	63.9	0	0	---	0.00	29.951 
02:10	66.3	66.3	66.3	92	63.9	0	0	---	0.00	29.951 
02:15	66.3	66.3	66.3	92	63.9	0	0	---	0.00	29.958 
02:20	66.3	66.3	66.3	93	64.2	0	0	---	0.00	29.958 
02:25	66.3	66.3	66.3	93	64.2	0	0	---	0.00	29.958 
02:30	66.3	66.3	66.3	93	64.2	0	0	---	0.00	29.958 
02:35	66.3	66.3	66.3	93	64.2	0	1	270	0.00	29.958 
02:40	66.1	66.1	66.1	93	64.0	0	0	---	0.00	29.958 
02:45	66.1	66.1	66.1	93	64.0	0	0	---	0.00	29.961 
02:50	66.0	66.0	66.0	94	64.2	0	0	---	0.00	29.961 
02:55	66.0	66.0	66.0	94	64.2	0	0	---	0.00	29.961 
03:00	65.8	65.8	65.8	94	64.0	0	0	---	0.00	29.966 
03:05	65.6	65.6	65.6	94	63.8	0	0	---	0.00	29.966 
03:10	65.6	65.6	65.6	94	63.8	0	0	---	0.00	29.966 
03:15	65.6	65.6	65.6	94	63.8	0	0	---	0.00	29.971 
03:20	65.5	65.5	65.5	94	63.7	0	0	---	0.00	29.971 
03:25	65.6	65.6	65.6	94	63.8	0	0	---	0.00	29.971 
03:30	65.6	65.6	65.6	94	63.8	0	0	---	0.00	29.975 
03:35	65.5	65.5	65.5	94	63.7	0	0	---	0.00	29.975 
03:40	65.5	65.5	65.5	94	63.7	0	0	---	0.00	29.975 
03:45	65.5	65.5	65.5	94	63.7	0	0	---	0.00	29.980 
03:50	65.5	65.5	65.5	94	63.7	0	0	---	0.00	29.980 
03:55	65.3	65.3	65.3	94	63.5	0	0	---	0.00	29.980 
04:00	65.3	65.3	65.3	94	63.5	0	0	---	0.00	29.984 
04:05	65.2	65.2	65.2	93	63.1	0	0	---	0.00	29.984 
04:10	65.0	65.0	65.0	93	62.9	0	0	---	0.00	29.984 
04:15	64.8	64.8	64.8	93	62.7	0	0	---	0.00	29.983 
04:20	64.7	64.7	64.7	93	62.6	0	0	---	0.00	29.983 
04:25	64.7	64.7	64.7	92	62.3	0	0	---	0.00	29.983 
04:30	64.8	64.8	64.8	92	62.4	0	0	---	0.00	29.983 
04:35	64.8	64.8	64.8	91	62.1	0	0	---	0.00	29.983 
04:40	65.0	65.0	65.0	90	62.0	0	0	---	0.00	29.983 
04:45	65.0	65.0	65.0	88	61.4	0	0	---	0.00	29.982 
04:50	65.0	65.0	65.0	86	60.7	0	1	270	0.00	29.982 
04:55	65.0	65.0	65.0	84	60.0	0	1	270	0.00	29.982 
05:00	65.2	65.2	65.2	82	59.6	0	0	---	0.00	29.981 
05:05	65.3	65.3	65.3	80	59.0	0	1	270	0.00	29.981 
05:10	65.3	65.3	65.3	78	58.3	0	1	270	0.00	29.981 
05:15	65.3	65.3	65.3	77	57.9	0	0	---	0.00	29.983 
05:20	65.3	65.3	65.3	76	57.5	0	1	270	0.00	29.983 
05:25	65.5	65.5	65.5	76	57.7	0	0	---	0.00	29.983 
05:30	65.5	65.5	65.5	76	57.7	0	0	---	0.00	29.984 
05:35	65.5	65.5	65.5	74	57.0	0	0	---	0.00	29.984 
05:40	65.5	65.5	65.5	74	57.0	0	0	---	0.00	29.984 
05:45	65.6	65.6	65.6	73	56.7	0	1	270	0.00	29.984 
05:50	65.6	65.6	65.6	74	57.1	0	2	270	0.00	29.984 
05:55	65.6	65.6	65.6	74	57.1	0	1	270	0.00	29.984 
06:00	65.5	65.5	65.5	73	56.6	0	2	248	0.00	29.982 
06:05	65.5	65.5	65.5	73	56.6	0	1	248	0.00	29.982 
06:10	65.2	65.2	65.2	73	56.3	0	1	248	0.00	29.982 
06:15	65.0	65.0	65.0	73	56.1	0	0	---	0.00	29.985 
06:20	64.7	64.7	64.7	74	56.2	0	0	---	0.00	29.985 
06:25	64.3	64.3	64.3	74	55.8	0	0	---	0.00	29.985 
06:30	64.2	64.2	64.2	75	56.1	0	1	248	0.00	29.990 
06:35	63.9	63.9	63.9	75	55.8	0	0	---	0.00	29.990 
06:40	63.7	63.7	63.7	76	56.0	0	0	---	0.00	29.990 
06:45	63.5	63.5	63.5	76	55.8	0	2	248	0.00	29.990 
06:50	63.5	63.5	63.5	77	56.2	0	3	202	0.00	29.990 
06:55	63.5	63.5	63.5	77	56.2	0	2	180	0.00	29.990 
07:00	63.5	63.5	63.5	77	56.2	0	3	180	0.00	29.998 
07:05	63.7	63.7	63.7	77	56.3	0	2	180	0.00	29.998 
07:10	63.9	63.9	63.9	77	56.5	0	2	180	0.00	29.998 
07:15	63.9	63.9	63.9	77	56.5	1	4	90	0.00	30.001 
07:20	64.0	64.0	64.0	78	57.0	0	1	90	0.00	30.001 
07:25	64.2	64.2	64.2	78	57.2	0	3	90	0.00	30.001 
07:30	64.2	64.2	64.2	79	57.5	0	2	90	0.00	30.014 
07:35	64.3	64.3	64.3	79	57.6	0	2	90	0.00	30.014 
07:40	64.5	64.5	64.5	79	57.8	0	2	90	0.00	30.014 
07:45	64.5	64.5	64.5	80	58.2	0	2	90	0.00	30.017 
07:50	64.5	64.5	64.5	80	58.2	0	2	90	0.00	30.017 
07:55	64.7	64.7	64.7	81	58.7	0	3	90	0.00	30.017 
08:00	64.7	64.7	64.7	80	58.4	1	6	90	0.00	30.017 
08:05	64.7	64.7	64.7	81	58.7	1	4	112	0.00	30.017 
08:10	65.0	65.0	65.0	81	59.0	0	1	112	0.00	30.017 
08:15	65.2	65.2	65.2	81	59.2	1	3	112	0.00	30.031 
08:20	65.3	65.3	65.3	81	59.3	1	2	112	0.00	30.031 
08:25	65.5	65.5	65.5	81	59.5	1	3	112	0.00	30.031 
08:30	66.1	66.1	66.1	80	59.7	1	4	112	0.00	30.028 
08:35	66.6	66.6	66.6	79	59.9	1	5	90	0.00	30.028 
08:40	67.1	67.1	67.1	78	60.0	2	6	90	0.00	30.028 
08:45	67.1	67.1	67.1	79	60.4	2	6	90	0.00	30.026 
08:50	67.1	67.1	67.1	78	60.0	2	6	90	0.00	30.026 
08:55	67.4	67.4	67.4	77	59.9	2	5	90	0.00	30.026 
09:00	67.8	67.8	67.8	78	60.7	2	4	90	0.00	30.029 
09:05	68.1	68.1	68.1	77	60.6	2	6	90	0.00	30.029 
09:10	68.4	68.4	68.4	76	60.5	2	4	90	0.00	30.029 
09:15	68.4	68.4	68.4	75	60.2	2	6	90	0.00	30.034 
09:20	68.6	68.6	68.6	75	60.3	3	6	90	0.00	30.034 
09:25	68.8	68.8	68.8	74	60.2	2	5	112	0.00	30.034 
09:30	69.1	69.1	69.1	74	60.5	2	5	68	0.00	30.038 
09:35	69.3	69.3	69.3	73	60.3	3	7	90	0.00	30.038 
09:40	69.3	69.3	69.3	74	60.6	2	7	90	0.00	30.038 
09:45	69.6	69.6	69.6	73	60.6	2	9	90	0.00	30.038 
09:50	69.8	69.8	69.8	73	60.7	2	6	90	0.00	30.038 
09:55	70.3	70.3	70.3	71	60.4	1	5	90	0.00	30.038 
10:00	70.9	70.9	70.9	69	60.2	2	6	90	0.00	30.046 
10:05	70.9	70.9	70.9	70	60.6	3	10	112	0.00	30.046 
10:10	71.1	71.1	71.1	70	60.8	2	4	112	0.00	30.046 
10:15	71.5	71.5	71.5	66	59.5	2	5	90	0.00	30.045 
10:20	71.5	71.5	71.5	66	59.5	2	6	90	0.00	30.045 
10:25	72.0	72.0	72.0	69	61.3	1	4	112	0.00	30.045 
10:30	72.1	72.1	72.1	67	60.5	2	4	112	0.00	30.048 
10:35	72.0	72.0	72.0	67	60.4	3	7	90	0.00	30.048 
10:40	71.8	71.8	71.8	66	59.8	2	4	112	0.00	30.048 
10:45	71.6	71.6	71.6	67	60.0	2	6	90	0.00	30.052 
10:50	72.3	72.3	72.3	66	60.3	2	5	68	0.00	30.052 
10:55	73.0	73.0	73.0	65	60.5	1	2	112	0.00	30.052 
11:00	73.0	73.0	73.0	65	60.5	1	4	112	0.00	30.058 
11:05	72.7	72.7	72.7	67	61.1	0	2	112	0.00	30.058 
11:10	72.3	72.3	72.3	68	61.1	2	4	112	0.00	30.058 
11:15	72.1	72.1	72.1	67	60.5	0	3	135	0.00	30.062 
11:20	71.8	71.8	71.8	67	60.2	1	3	112	0.00	30.062 
11:25	72.0	72.0	72.0	65	59.6	1	5	90	0.00	30.062 
11:30	72.8	72.8	72.8	66	60.8	2	5	90	0.00	30.059 
11:35	73.3	73.3	73.3	64	60.4	2	4	112	0.00	30.059 
11:40	73.9	73.9	73.9	64	60.9	1	3	135	0.00	30.059 
11:45	74.0	74.0	74.0	62	60.1	2	7	90	0.00	30.064 
11:50	74.0	74.0	74.0	62	60.1	2	5	90	0.00	30.064 
11:55	74.0	74.0	74.0	62	60.1	3	7	90	0.00	30.064 
12:00	74.6	74.6	74.6	59	59.3	1	3	112	0.00	30.067 
12:05	75.3	75.3	77.5	61	60.9	1	4	112	0.00	30.067 
12:10	74.9	74.9	74.9	59	59.6	0	3	112	0.00	30.067 
12:15	74.0	74.0	74.0	61	59.7	1	4	112	0.00	30.065 
12:20	73.9	73.9	73.9	62	60.0	0	2	112	0.00	30.065 
12:25	74.0	74.0	74.0	62	60.1	1	3	112	0.00	30.065 
12:30	74.6	74.6	74.6	60	59.8	1	4	112	0.00	30.065 
12:35	75.1	75.1	77.5	58	59.3	0	2	112	0.00	30.065 
12:40	75.1	75.1	77.4	60	60.2	0	2	112	0.00	30.065 
12:45	74.9	74.9	74.9	62	61.0	0	3	112	0.00	30.062 
12:50	75.1	75.1	77.5	59	59.8	1	4	112	0.00	30.062 
12:55	76.0	76.0	78.0	58	60.1	1	5	112	0.00	30.062 
13:00	76.8	76.8	78.6	59	61.4	1	3	112	0.00	30.058 
13:05	77.0	77.0	78.7	56	60.1	2	4	135	0.00	30.058 
13:10	77.0	77.0	78.7	55	59.6	1	2	68	0.00	30.058 
13:15	77.4	77.4	79.1	57	61.0	1	4	68	0.00	30.055 
13:20	77.4	77.4	79.0	54	59.4	2	6	112	0.00	30.055 
13:25	76.3	76.3	78.3	56	59.4	1	3	90	0.00	30.055 
13:30	75.8	75.8	77.9	56	59.0	0	3	90	0.00	30.052 
13:35	75.3	75.3	77.6	57	59.0	0	2	90	0.00	30.052 
13:40	75.6	75.6	77.8	56	58.8	1	4	90	0.00	30.052 
13:45	76.1	76.1	78.1	55	58.7	0	2	90	0.00	30.049 
13:50	76.7	76.7	78.5	55	59.3	0	2	90	0.00	30.049 
13:55	76.3	76.3	78.3	56	59.4	1	3	90	0.00	30.049 
14:00	76.0	76.0	78.1	55	58.6	1	3	90	0.00	30.049 
14:05	76.1	76.1	78.1	57	59.7	1	3	90	0.00	30.049 
14:10	76.1	76.1	78.1	53	57.7	0	1	90	0.00	30.049 
14:15	75.8	75.8	78.0	51	56.4	0	1	90	0.00	30.056 
14:20	76.3	76.3	78.2	53	57.9	0	1	90	0.00	30.056 
14:25	77.0	77.0	78.6	51	57.5	1	3	90	0.00	30.056 
14:30	77.7	77.7	79.1	52	58.6	1	2	112	0.00	30.050 
14:35	78.3	78.3	79.5	51	58.7	0	3	112	0.00	30.050 
14:40	78.1	78.1	79.3	50	57.9	0	1	112	0.00	30.050 
14:45	77.7	77.7	78.9	48	56.4	1	2	112	0.00	30.049 
14:50	77.6	77.6	79.0	51	58.0	0	1	112	0.00	30.049 
14:55	78.1	78.1	79.4	52	59.0	0	2	112	0.00	30.049 
15:00	78.8	78.8	79.7	48	57.4	1	4	112	0.00	30.047 
15:05	79.2	79.2	80.1	50	58.9	1	3	112	0.00	30.047 
15:10	78.8	78.8	79.6	46	56.2	0	2	112	0.00	30.047 
15:15	78.6	78.6	79.5	47	56.7	1	3	112	0.00	30.045 
15:20	79.2	79.2	79.8	45	56.0	0	2	112	0.00	30.045 
15:25	79.6	79.6	80.0	44	55.7	1	3	112	0.00	30.045 
15:30	79.8	79.8	80.4	47	57.8	1	3	0	0.00	30.043 
15:35	80.1	80.1	80.6	47	58.0	1	3	22	0.00	30.043 
15:40	80.3	80.3	80.5	44	56.4	1	3	22	0.00	30.043 
15:45	80.3	80.3	80.9	48	58.8	1	4	112	0.00	30.042 
15:50	80.3	80.3	80.6	45	57.0	0	2	292	0.00	30.042 
15:55	80.3	80.3	80.8	47	58.2	1	2	292	0.00	30.042 
16:00	79.8	79.8	80.1	44	55.9	0	1	0	0.00	30.032 
16:05	79.6	79.6	80.3	48	58.2	0	1	315	0.00	30.032 
16:10	79.8	79.8	80.0	43	55.3	0	2	315	0.00	30.032 
16:15	79.9	79.9	80.1	43	55.4	1	3	315	0.00	30.028 
16:20	80.3	80.3	80.5	44	56.4	0	3	315	0.00	30.028 
16:25	80.5	80.5	80.5	42	55.3	0	2	22	0.00	30.028 
16:30	79.9	79.9	80.1	43	55.4	0	1	22	0.00	30.022 
16:35	79.4	79.4	80.0	46	56.8	0	1	22	0.00	30.022 
16:40	79.4	79.4	80.1	47	57.4	0	2	0	0.00	30.022 
16:45	79.2	79.2	79.6	43	54.7	0	2	315	0.00	30.022 
16:50	79.4	79.4	79.9	45	56.2	0	1	315	0.00	30.022 
16:55	79.8	79.8	79.9	41	54.0	0	2	315	0.00	30.022 
17:00	79.2	79.2	79.5	42	54.1	0	2	315	0.00	30.019 
17:05	78.8	78.8	79.3	42	53.7	0	1	315	0.00	30.019 
17:10	78.8	78.8	79.3	42	53.7	1	2	315	0.00	30.019 
17:15	79.4	79.4	79.8	43	54.9	0	2	315	0.00	30.017 
17:20	79.8	79.8	79.9	41	54.0	0	1	315	0.00	30.017 
17:25	79.0	79.0	79.5	43	54.6	0	1	315	0.00	30.017 
17:30	78.5	78.5	79.2	44	54.7	0	1	315	0.00	30.018 
17:35	78.6	78.6	79.2	42	53.6	0	2	292	0.00	30.018 
17:40	79.0	79.0	79.4	42	53.9	0	1	292	0.00	30.018 
17:45	79.4	79.4	79.7	42	54.3	0	2	292	0.00	30.017 
17:50	79.2	79.2	79.5	42	54.1	0	2	292	0.00	30.017 
17:55	78.8	78.8	79.5	45	55.6	0	2	292	0.00	30.017 
18:00	78.6	78.6	79.4	45	55.5	0	2	292	0.00	30.014 
18:05	79.0	79.0	79.5	43	54.6	0	2	292	0.00	30.014 
18:10	79.2	79.2	79.5	42	54.1	0	2	292	0.00	30.014 
18:15	79.0	79.0	79.4	41	53.3	0	2	292	0.00	30.013 
18:20	78.8	78.8	79.0	38	51.0	0	2	292	0.00	30.013 
18:25	78.5	78.5	78.8	37	50.0	0	2	292	0.00	30.013 
18:30	78.3	78.3	78.8	39	51.3	0	2	292	0.00	30.014 
18:35	78.6	78.6	78.9	38	50.8	0	2	292	0.00	30.014 
18:40	78.6	78.6	78.9	38	50.8	0	2	292	0.00	30.014 
18:45	78.8	78.8	79.0	38	51.0	0	2	292	0.00	30.011 
18:50	78.6	78.6	79.0	39	51.5	0	1	292	0.00	30.011 
18:55	78.3	78.3	78.9	40	52.0	0	2	292	0.00	30.011 
19:00	78.3	78.3	78.8	38	50.6	1	3	292	0.00	30.007 
19:05	78.1	78.1	78.8	40	51.8	0	2	292	0.00	30.007 
19:10	77.9	77.9	78.6	39	50.9	0	1	292	0.00	30.007 
19:15	77.7	77.7	78.6	41	52.1	0	1	292	0.00	30.002 
19:20	77.4	77.4	78.4	40	51.2	0	1	315	0.00	30.002 
19:25	77.0	77.0	78.3	41	51.5	0	1	315	0.00	30.002 
19:30	76.7	76.7	78.1	41	51.2	0	0	---	0.00	30.001 
19:35	76.3	76.3	78.0	42	51.5	0	1	315	0.00	30.001 
19:40	76.0	76.0	77.9	43	51.9	0	1	315	0.00	30.001 
19:45	75.6	75.6	77.8	44	52.1	0	1	315	0.00	30.007 
19:50	75.3	75.3	77.7	43	51.2	0	1	315	0.00	30.007 
19:55	75.3	75.3	77.7	45	52.5	0	1	315	0.00	30.007 
20:00	75.1	75.1	77.6	45	52.3	0	0	---	0.00	30.007 
20:05	74.9	74.9	74.9	46	52.7	0	0	---	0.00	30.007 
20:10	74.6	74.6	74.6	46	52.4	0	0	---	0.00	30.007 
20:15	74.4	74.4	74.4	47	52.8	0	0	---	0.00	30.009 
20:20	74.2	74.2	74.2	47	52.7	0	0	---	0.00	30.009 
20:25	74.0	74.0	74.0	48	53.0	0	0	---	0.00	30.009 
20:30	73.9	73.9	73.9	49	53.5	0	0	---	0.00	30.016 
20:35	73.5	73.5	73.5	49	53.2	0	0	---	0.00	30.016 
20:40	73.2	73.2	73.2	49	52.9	0	0	---	0.00	30.016 
20:45	72.8	72.8	72.8	50	53.1	0	0	---	0.00	30.016 
20:50	72.5	72.5	72.5	51	53.3	0	0	---	0.00	30.016 
20:55	72.1	72.1	72.1	52	53.5	0	0	---	0.00	30.016 
21:00	71.6	71.6	71.6	52	53.0	0	0	---	0.00	30.018 
21:05	71.3	71.3	71.3	53	53.3	0	0	---	0.00	30.018 
21:10	70.9	70.9	70.9	54	53.4	0	0	---	0.00	30.018 
21:15	70.4	70.4	70.4	55	53.4	0	0	---	0.00	30.022 
21:20	70.1	70.1	70.1	56	53.7	0	0	---	0.00	30.022 
21:25	69.9	69.9	69.9	56	53.5	0	2	315	0.00	30.022 
21:30	69.9	69.9	69.9	56	53.5	0	1	315	0.00	30.034 
21:35	69.9	69.9	69.9	56	53.5	0	1	315	0.00	30.034 
21:40	69.8	69.8	69.8	56	53.4	0	0	---	0.00	30.034 
21:45	69.6	69.6	69.6	56	53.2	0	1	315	0.00	30.039 
21:50	69.3	69.3	69.3	56	52.9	0	0	---	0.00	30.039 
21:55	69.1	69.1	69.1	56	52.7	0	1	315	0.00	30.039 
22:00	68.8	68.8	68.8	57	52.9	0	0	---	0.00	30.044 
22:05	68.6	68.6	68.6	57	52.7	0	0	---	0.00	30.044 
22:10	68.3	68.3	68.3	57	52.5	0	0	---	0.00	30.044 
22:15	67.9	67.9	67.9	58	52.6	0	0	---	0.00	30.048 
22:20	67.6	67.6	67.6	59	52.8	0	0	---	0.00	30.048 
22:25	67.3	67.3	67.3	58	52.0	0	1	315	0.00	30.048 
22:30	67.3	67.3	67.3	58	52.0	0	1	315	0.00	30.053 
22:35	67.1	67.1	67.1	58	51.8	0	1	315	0.00	30.053 
22:40	67.1	67.1	67.1	58	51.8	0	1	315	0.00	30.053 
22:45	66.9	66.9	66.9	57	51.2	0	1	315	0.00	30.052 
22:50	66.9	66.9	66.9	57	51.2	0	1	315	0.00	30.052 
22:55	66.8	66.8	66.8	57	51.1	0	0	---	0.00	30.052 
23:00	66.6	66.6	66.6	58	51.4	0	0	---	0.00	30.052 
23:05	66.3	66.3	66.3	58	51.1	0	0	---	0.00	30.052 
23:10	66.0	66.0	66.0	59	51.3	0	0	---	0.00	30.052 
23:15	65.6	65.6	65.6	59	50.9	0	0	---	0.00	30.051 
23:20	65.5	65.5	65.5	59	50.8	0	0	---	0.00	30.051 
23:25	65.3	65.3	65.3	59	50.6	0	0	---	0.00	30.051 
23:30	65.2	65.2	65.2	60	51.0	0	0	---	0.00	30.050 
23:35	65.0	65.0	65.0	60	50.8	0	1	315	0.00	30.050 
23:40	64.8	64.8	64.8	60	50.6	0	0	---	0.00	30.050 
23:45	64.7	64.7	64.7	61	50.9	0	0	---	0.00	30.051 
23:50	64.5	64.5	64.5	61	50.7	0	0	---	0.00	30.051 
23:55	64.3	64.3	64.3	61	50.6	0	0	---	0.00	30.051 

CoCoRaHS
IN-AL-39
A2 Web Hosting
Creative Commons License
GoDaddy
search engine by freefind advanced

loaded 2018-11-17 05:41:54 • last modified 2010-11-18 10:43:29
Privacy PolicyDisclaimer
• wx.awcolley.com is powered by PmWiki v.2002016 •
• all content (unless otherwise noted) © 2018 A W Colley